sensor_id;sensor_type;location;lat;lon;timestamp;P1;durP1;ratioP1;P2;durP2;ratioP2
68375;SDS011;55318;52.068;5.188;2023-12-28T00:02:21;2.8;;;2.1;;
68375;SDS011;55318;52.068;5.188;2023-12-28T00:03:58;2.6;;;1.5;;
68375;SDS011;55318;52.068;5.188;2023-12-28T00:05:34;2.5;;;1.6;;
68375;SDS011;55318;52.068;5.188;2023-12-28T00:08:46;3.1;;;2.21;;
68375;SDS011;55318;52.068;5.188;2023-12-28T00:10:22;3.6;;;1.4;;
68375;SDS011;55318;52.068;5.188;2023-12-28T00:11:59;1.8;;;1.5;;
68375;SDS011;55318;52.068;5.188;2023-12-28T00:13:35;4.2;;;1.9;;
68375;SDS011;55318;52.068;5.188;2023-12-28T00:16:47;2.8;;;1.7;;
68375;SDS011;55318;52.068;5.188;2023-12-28T00:18:23;3.6;;;1.4;;
68375;SDS011;55318;52.068;5.188;2023-12-28T00:20:00;4.0;;;2.21;;
68375;SDS011;55318;52.068;5.188;2023-12-28T00:23:12;3.5;;;1.3;;
68375;SDS011;55318;52.068;5.188;2023-12-28T00:24:48;4.3;;;2.0;;
68375;SDS011;55318;52.068;5.188;2023-12-28T00:26:24;4.91;;;1.7;;
68375;SDS011;55318;52.068;5.188;2023-12-28T00:29:36;3.6;;;1.9;;
68375;SDS011;55318;52.068;5.188;2023-12-28T00:31:12;1.9;;;1.6;;
68375;SDS011;55318;52.068;5.188;2023-12-28T00:32:48;2.5;;;1.8;;
68375;SDS011;55318;52.068;5.188;2023-12-28T00:36:01;3.0;;;1.7;;
68375;SDS011;55318;52.068;5.188;2023-12-28T00:37:37;2.31;;;1.6;;
68375;SDS011;55318;52.068;5.188;2023-12-28T00:39:14;2.6;;;1.8;;
68375;SDS011;55318;52.068;5.188;2023-12-28T00:40:50;3.2;;;1.6;;
68375;SDS011;55318;52.068;5.188;2023-12-28T00:44:02;3.4;;;2.21;;
68375;SDS011;55318;52.068;5.188;2023-12-28T00:45:41;3.2;;;1.6;;
68375;SDS011;55318;52.068;5.188;2023-12-28T00:47:17;2.9;;;2.1;;
68375;SDS011;55318;52.068;5.188;2023-12-28T00:50:29;6.2;;;2.4;;
68375;SDS011;55318;52.068;5.188;2023-12-28T00:52:06;3.4;;;2.4;;
68375;SDS011;55318;52.068;5.188;2023-12-28T00:53:42;2.8;;;1.9;;
68375;SDS011;55318;52.068;5.188;2023-12-28T00:56:54;2.31;;;1.4;;
68375;SDS011;55318;52.068;5.188;2023-12-28T00:58:30;4.5;;;2.5;;
68375;SDS011;55318;52.068;5.188;2023-12-28T01:00:07;3.1;;;1.9;;
68375;SDS011;55318;52.068;5.188;2023-12-28T01:01:43;3.6;;;2.0;;
68375;SDS011;55318;52.068;5.188;2023-12-28T01:04:55;3.3;;;1.5;;
68375;SDS011;55318;52.068;5.188;2023-12-28T01:06:31;4.8;;;1.7;;
68375;SDS011;55318;52.068;5.188;2023-12-28T01:08:08;3.6;;;1.6;;
68375;SDS011;55318;52.068;5.188;2023-12-28T01:11:20;4.8;;;1.2;;
68375;SDS011;55318;52.068;5.188;2023-12-28T01:12:57;2.5;;;1.6;;
68375;SDS011;55318;52.068;5.188;2023-12-28T01:14:33;6.0;;;2.31;;
68375;SDS011;55318;52.068;5.188;2023-12-28T01:17:48;4.8;;;1.8;;
68375;SDS011;55318;52.068;5.188;2023-12-28T01:19:24;4.41;;;1.7;;
68375;SDS011;55318;52.068;5.188;2023-12-28T01:21:00;4.61;;;1.9;;
68375;SDS011;55318;52.068;5.188;2023-12-28T01:22:37;3.7;;;1.9;;
68375;SDS011;55318;52.068;5.188;2023-12-28T01:25:49;3.3;;;1.3;;
68375;SDS011;55318;52.068;5.188;2023-12-28T01:27:25;2.5;;;2.1;;
68375;SDS011;55318;52.068;5.188;2023-12-28T01:29:01;3.7;;;1.6;;
68375;SDS011;55318;52.068;5.188;2023-12-28T01:32:13;3.2;;;1.7;;
68375;SDS011;55318;52.068;5.188;2023-12-28T01:33:49;3.4;;;1.5;;
68375;SDS011;55318;52.068;5.188;2023-12-28T01:35:25;2.7;;;1.2;;
68375;SDS011;55318;52.068;5.188;2023-12-28T01:38:39;2.4;;;1.5;;
68375;SDS011;55318;52.068;5.188;2023-12-28T01:40:15;5.0;;;1.8;;
68375;SDS011;55318;52.068;5.188;2023-12-28T01:41:51;2.5;;;1.6;;
68375;SDS011;55318;52.068;5.188;2023-12-28T01:45:03;3.7;;;1.6;;
68375;SDS011;55318;52.068;5.188;2023-12-28T01:46:40;2.9;;;1.6;;
68375;SDS011;55318;52.068;5.188;2023-12-28T01:48:17;3.7;;;1.7;;
68375;SDS011;55318;52.068;5.188;2023-12-28T01:49:53;3.0;;;2.1;;
68375;SDS011;55318;52.068;5.188;2023-12-28T01:53:10;3.7;;;1.6;;
68375;SDS011;55318;52.068;5.188;2023-12-28T01:54:48;2.7;;;1.2;;
68375;SDS011;55318;52.068;5.188;2023-12-28T01:56:25;2.9;;;1.9;;
68375;SDS011;55318;52.068;5.188;2023-12-28T01:59:38;5.4;;;2.0;;
68375;SDS011;55318;52.068;5.188;2023-12-28T02:01:15;9.21;;;2.8;;
68375;SDS011;55318;52.068;5.188;2023-12-28T02:02:52;5.5;;;1.6;;
68375;SDS011;55318;52.068;5.188;2023-12-28T02:04:29;2.9;;;1.6;;
68375;SDS011;55318;52.068;5.188;2023-12-28T02:07:43;3.9;;;2.0;;
68375;SDS011;55318;52.068;5.188;2023-12-28T02:09:18;3.9;;;2.8;;
68375;SDS011;55318;52.068;5.188;2023-12-28T02:10:55;2.31;;;1.7;;
68375;SDS011;55318;52.068;5.188;2023-12-28T02:14:07;5.5;;;2.31;;
68375;SDS011;55318;52.068;5.188;2023-12-28T02:15:43;2.7;;;1.7;;
68375;SDS011;55318;52.068;5.188;2023-12-28T02:17:28;4.61;;;2.1;;
68375;SDS011;55318;52.068;5.188;2023-12-28T02:19:10;3.9;;;1.7;;
68375;SDS011;55318;52.068;5.188;2023-12-28T02:22:37;2.7;;;1.6;;
68375;SDS011;55318;52.068;5.188;2023-12-28T02:24:13;3.9;;;1.7;;
68375;SDS011;55318;52.068;5.188;2023-12-28T02:25:49;4.1;;;1.6;;
68375;SDS011;55318;52.068;5.188;2023-12-28T02:29:03;5.5;;;1.6;;
68375;SDS011;55318;52.068;5.188;2023-12-28T02:30:39;4.61;;;1.6;;
68375;SDS011;55318;52.068;5.188;2023-12-28T02:32:15;3.3;;;1.5;;
68375;SDS011;55318;52.068;5.188;2023-12-28T02:33:57;3.9;;;1.6;;
68375;SDS011;55318;52.068;5.188;2023-12-28T02:37:21;4.2;;;1.9;;
68375;SDS011;55318;52.068;5.188;2023-12-28T02:38:58;6.0;;;2.31;;
68375;SDS011;55318;52.068;5.188;2023-12-28T02:40:36;8.81;;;2.5;;
68375;SDS011;55318;52.068;5.188;2023-12-28T02:42:14;1.9;;;1.3;;
68375;SDS011;55318;52.068;5.188;2023-12-28T02:45:27;3.8;;;1.7;;
68375;SDS011;55318;52.068;5.188;2023-12-28T02:47:03;2.21;;;1.2;;
68375;SDS011;55318;52.068;5.188;2023-12-28T02:48:39;4.1;;;1.9;;
68375;SDS011;55318;52.068;5.188;2023-12-28T02:51:51;2.9;;;1.4;;
68375;SDS011;55318;52.068;5.188;2023-12-28T02:53:27;4.5;;;1.7;;
68375;SDS011;55318;52.068;5.188;2023-12-28T02:55:04;4.0;;;1.8;;
68375;SDS011;55318;52.068;5.188;2023-12-28T02:58:16;4.2;;;1.8;;
68375;SDS011;55318;52.068;5.188;2023-12-28T02:59:53;3.2;;;1.5;;
68375;SDS011;55318;52.068;5.188;2023-12-28T03:01:29;4.41;;;1.3;;
68375;SDS011;55318;52.068;5.188;2023-12-28T03:03:05;2.31;;;1.4;;
68375;SDS011;55318;52.068;5.188;2023-12-28T03:06:17;3.8;;;1.7;;
68375;SDS011;55318;52.068;5.188;2023-12-28T03:07:53;7.1;;;2.31;;
68375;SDS011;55318;52.068;5.188;2023-12-28T03:09:29;1.8;;;1.11;;
68375;SDS011;55318;52.068;5.188;2023-12-28T03:12:41;4.2;;;1.4;;
68375;SDS011;55318;52.068;5.188;2023-12-28T03:14:18;4.1;;;1.3;;
68375;SDS011;55318;52.068;5.188;2023-12-28T03:15:54;2.7;;;1.3;;
68375;SDS011;55318;52.068;5.188;2023-12-28T03:19:07;3.7;;;2.1;;
68375;SDS011;55318;52.068;5.188;2023-12-28T03:20:43;4.1;;;1.3;;
68375;SDS011;55318;52.068;5.188;2023-12-28T03:22:19;3.9;;;1.5;;
68375;SDS011;55318;52.068;5.188;2023-12-28T03:25:31;2.8;;;1.2;;
68375;SDS011;55318;52.068;5.188;2023-12-28T03:27:07;4.2;;;1.6;;
68375;SDS011;55318;52.068;5.188;2023-12-28T03:28:44;3.6;;;1.5;;
68375;SDS011;55318;52.068;5.188;2023-12-28T03:30:20;5.6;;;1.8;;
68375;SDS011;55318;52.068;5.188;2023-12-28T03:33:32;3.1;;;1.5;;
68375;SDS011;55318;52.068;5.188;2023-12-28T03:35:08;4.41;;;1.8;;
68375;SDS011;55318;52.068;5.188;2023-12-28T03:36:44;3.9;;;1.6;;
68375;SDS011;55318;52.068;5.188;2023-12-28T03:38:20;5.0;;;1.4;;
68375;SDS011;55318;52.068;5.188;2023-12-28T03:41:32;2.9;;;1.2;;
68375;SDS011;55318;52.068;5.188;2023-12-28T03:43:08;3.4;;;1.6;;
68375;SDS011;55318;52.068;5.188;2023-12-28T03:44:45;3.4;;;1.5;;
68375;SDS011;55318;52.068;5.188;2023-12-28T03:47:57;2.1;;;1.2;;
68375;SDS011;55318;52.068;5.188;2023-12-28T03:49:33;4.7;;;1.8;;
68375;SDS011;55318;52.068;5.188;2023-12-28T03:51:13;4.0;;;1.4;;
68375;SDS011;55318;52.068;5.188;2023-12-28T03:54:25;6.6;;;1.7;;
68375;SDS011;55318;52.068;5.188;2023-12-28T03:56:01;4.5;;;1.7;;
68375;SDS011;55318;52.068;5.188;2023-12-28T03:57:38;3.1;;;1.7;;
68375;SDS011;55318;52.068;5.188;2023-12-28T03:59:14;5.2;;;1.6;;
68375;SDS011;55318;52.068;5.188;2023-12-28T04:02:28;3.5;;;1.5;;
68375;SDS011;55318;52.068;5.188;2023-12-28T04:04:04;3.9;;;1.4;;
68375;SDS011;55318;52.068;5.188;2023-12-28T04:05:40;4.1;;;2.1;;
68375;SDS011;55318;52.068;5.188;2023-12-28T04:08:52;2.21;;;1.5;;
68375;SDS011;55318;52.068;5.188;2023-12-28T04:10:29;3.7;;;1.8;;
68375;SDS011;55318;52.068;5.188;2023-12-28T04:12:05;2.7;;;1.2;;
68375;SDS011;55318;52.068;5.188;2023-12-28T04:15:17;3.9;;;1.6;;
68375;SDS011;55318;52.068;5.188;2023-12-28T04:16:54;4.5;;;1.7;;
68375;SDS011;55318;52.068;5.188;2023-12-28T04:18:30;4.2;;;1.9;;
68375;SDS011;55318;52.068;5.188;2023-12-28T04:20:06;3.8;;;1.4;;
68375;SDS011;55318;52.068;5.188;2023-12-28T04:23:19;4.5;;;1.6;;
68375;SDS011;55318;52.068;5.188;2023-12-28T04:24:55;4.1;;;1.4;;
68375;SDS011;55318;52.068;5.188;2023-12-28T04:26:31;6.8;;;1.6;;
68375;SDS011;55318;52.068;5.188;2023-12-28T04:29:46;2.6;;;1.2;;
68375;SDS011;55318;52.068;5.188;2023-12-28T04:31:22;6.9;;;2.6;;
68375;SDS011;55318;52.068;5.188;2023-12-28T04:32:59;4.7;;;1.8;;
68375;SDS011;55318;52.068;5.188;2023-12-28T04:36:12;8.4;;;1.8;;
68375;SDS011;55318;52.068;5.188;2023-12-28T04:37:48;4.5;;;1.6;;
68375;SDS011;55318;52.068;5.188;2023-12-28T04:39:24;6.2;;;2.0;;
68375;SDS011;55318;52.068;5.188;2023-12-28T04:41:01;4.8;;;1.3;;
68375;SDS011;55318;52.068;5.188;2023-12-28T04:44:13;6.2;;;1.5;;
68375;SDS011;55318;52.068;5.188;2023-12-28T04:47:25;6.1;;;1.6;;
68375;SDS011;55318;52.068;5.188;2023-12-28T04:50:38;8.6;;;1.6;;
68375;SDS011;55318;52.068;5.188;2023-12-28T04:52:14;4.7;;;2.0;;
68375;SDS011;55318;52.068;5.188;2023-12-28T04:53:50;4.8;;;1.6;;
68375;SDS011;55318;52.068;5.188;2023-12-28T04:57:02;3.4;;;2.1;;
68375;SDS011;55318;52.068;5.188;2023-12-28T04:58:39;4.5;;;1.9;;
68375;SDS011;55318;52.068;5.188;2023-12-28T05:00:15;5.0;;;2.21;;
68375;SDS011;55318;52.068;5.188;2023-12-28T05:03:28;2.8;;;1.4;;
68375;SDS011;55318;52.068;5.188;2023-12-28T05:05:05;3.9;;;1.9;;
68375;SDS011;55318;52.068;5.188;2023-12-28T05:06:41;8.31;;;2.5;;
68375;SDS011;55318;52.068;5.188;2023-12-28T05:08:17;4.2;;;1.7;;
68375;SDS011;55318;52.068;5.188;2023-12-28T05:11:30;4.41;;;2.21;;
68375;SDS011;55318;52.068;5.188;2023-12-28T05:13:06;5.7;;;1.5;;
68375;SDS011;55318;52.068;5.188;2023-12-28T05:14:42;5.0;;;2.7;;
68375;SDS011;55318;52.068;5.188;2023-12-28T05:17:54;3.3;;;1.7;;
68375;SDS011;55318;52.068;5.188;2023-12-28T05:19:30;5.7;;;1.8;;
68375;SDS011;55318;52.068;5.188;2023-12-28T05:21:06;4.8;;;1.8;;
68375;SDS011;55318;52.068;5.188;2023-12-28T05:24:18;3.6;;;1.7;;
68375;SDS011;55318;52.068;5.188;2023-12-28T05:25:55;5.7;;;1.4;;
68375;SDS011;55318;52.068;5.188;2023-12-28T05:27:31;6.3;;;2.1;;
68375;SDS011;55318;52.068;5.188;2023-12-28T05:29:07;4.2;;;1.3;;
68375;SDS011;55318;52.068;5.188;2023-12-28T05:32:19;8.5;;;2.31;;
68375;SDS011;55318;52.068;5.188;2023-12-28T05:33:55;7.8;;;2.1;;
68375;SDS011;55318;52.068;5.188;2023-12-28T05:35:31;7.6;;;1.8;;
68375;SDS011;55318;52.068;5.188;2023-12-28T05:38:43;6.4;;;1.7;;
68375;SDS011;55318;52.068;5.188;2023-12-28T05:40:19;7.2;;;2.21;;
68375;SDS011;55318;52.068;5.188;2023-12-28T05:41:55;7.8;;;2.0;;
68375;SDS011;55318;52.068;5.188;2023-12-28T05:45:08;5.5;;;1.9;;
68375;SDS011;55318;52.068;5.188;2023-12-28T05:46:45;8.81;;;2.31;;
68375;SDS011;55318;52.068;5.188;2023-12-28T05:48:24;8.81;;;2.31;;
68375;SDS011;55318;52.068;5.188;2023-12-28T05:51:37;6.8;;;1.7;;
68375;SDS011;55318;52.068;5.188;2023-12-28T05:53:14;4.1;;;2.0;;
68375;SDS011;55318;52.068;5.188;2023-12-28T05:54:50;5.8;;;1.8;;
68375;SDS011;55318;52.068;5.188;2023-12-28T05:56:26;4.0;;;1.8;;
68375;SDS011;55318;52.068;5.188;2023-12-28T05:59:42;6.9;;;1.5;;
68375;SDS011;55318;52.068;5.188;2023-12-28T06:01:18;5.8;;;1.7;;
68375;SDS011;55318;52.068;5.188;2023-12-28T06:02:54;5.6;;;1.9;;
68375;SDS011;55318;52.068;5.188;2023-12-28T06:06:06;5.9;;;1.7;;
68375;SDS011;55318;52.068;5.188;2023-12-28T06:07:42;10.21;;;2.1;;
68375;SDS011;55318;52.068;5.188;2023-12-28T06:09:18;6.7;;;2.31;;
68375;SDS011;55318;52.068;5.188;2023-12-28T06:12:33;5.11;;;2.21;;
68375;SDS011;55318;52.068;5.188;2023-12-28T06:14:09;11.6;;;2.5;;
68375;SDS011;55318;52.068;5.188;2023-12-28T06:15:45;9.21;;;2.5;;
68375;SDS011;55318;52.068;5.188;2023-12-28T06:17:21;6.9;;;1.9;;
68375;SDS011;55318;52.068;5.188;2023-12-28T06:20:34;8.1;;;2.4;;
68375;SDS011;55318;52.068;5.188;2023-12-28T06:22:10;7.3;;;2.4;;
68375;SDS011;55318;52.068;5.188;2023-12-28T06:23:46;9.9;;;2.6;;
68375;SDS011;55318;52.068;5.188;2023-12-28T06:26:59;6.8;;;1.8;;
68375;SDS011;55318;52.068;5.188;2023-12-28T06:28:35;3.9;;;1.5;;
68375;SDS011;55318;52.068;5.188;2023-12-28T06:30:12;6.1;;;1.9;;
68375;SDS011;55318;52.068;5.188;2023-12-28T06:33:24;10.8;;;2.7;;
68375;SDS011;55318;52.068;5.188;2023-12-28T06:35:01;8.0;;;2.4;;
68375;SDS011;55318;52.068;5.188;2023-12-28T06:36:37;6.3;;;1.8;;
68375;SDS011;55318;52.068;5.188;2023-12-28T06:38:13;8.2;;;2.1;;
68375;SDS011;55318;52.068;5.188;2023-12-28T06:41:25;14.2;;;2.9;;
68375;SDS011;55318;52.068;5.188;2023-12-28T06:43:02;8.31;;;2.9;;
68375;SDS011;55318;52.068;5.188;2023-12-28T06:44:38;9.4;;;2.9;;
68375;SDS011;55318;52.068;5.188;2023-12-28T06:47:50;8.0;;;1.8;;
68375;SDS011;55318;52.068;5.188;2023-12-28T06:49:26;6.7;;;2.1;;
68375;SDS011;55318;52.068;5.188;2023-12-28T06:51:03;6.2;;;2.7;;
68375;SDS011;55318;52.068;5.188;2023-12-28T06:54:15;11.0;;;3.3;;
68375;SDS011;55318;52.068;5.188;2023-12-28T06:55:50;9.81;;;2.4;;
68375;SDS011;55318;52.068;5.188;2023-12-28T06:57:26;6.0;;;2.0;;
68375;SDS011;55318;52.068;5.188;2023-12-28T07:00:38;6.6;;;2.21;;
68375;SDS011;55318;52.068;5.188;2023-12-28T07:02:14;5.4;;;1.7;;
68375;SDS011;55318;52.068;5.188;2023-12-28T07:03:50;7.2;;;2.4;;
68375;SDS011;55318;52.068;5.188;2023-12-28T07:05:27;8.31;;;2.8;;
68375;SDS011;55318;52.068;5.188;2023-12-28T07:08:39;10.1;;;2.0;;
68375;SDS011;55318;52.068;5.188;2023-12-28T07:10:16;5.9;;;2.31;;
68375;SDS011;55318;52.068;5.188;2023-12-28T07:11:52;6.8;;;2.5;;
68375;SDS011;55318;52.068;5.188;2023-12-28T07:15:04;7.4;;;1.9;;
68375;SDS011;55318;52.068;5.188;2023-12-28T07:16:41;9.81;;;2.9;;
68375;SDS011;55318;52.068;5.188;2023-12-28T07:18:17;7.9;;;2.31;;
68375;SDS011;55318;52.068;5.188;2023-12-28T07:21:29;7.9;;;1.7;;
68375;SDS011;55318;52.068;5.188;2023-12-28T07:23:05;10.1;;;2.8;;
68375;SDS011;55318;52.068;5.188;2023-12-28T07:24:41;8.2;;;2.21;;
68375;SDS011;55318;52.068;5.188;2023-12-28T07:26:17;6.7;;;1.8;;
68375;SDS011;55318;52.068;5.188;2023-12-28T07:29:30;10.4;;;3.2;;
68375;SDS011;55318;52.068;5.188;2023-12-28T07:31:06;13.3;;;2.8;;
68375;SDS011;55318;52.068;5.188;2023-12-28T07:32:42;6.8;;;2.1;;
68375;SDS011;55318;52.068;5.188;2023-12-28T07:35:54;12.5;;;3.9;;
68375;SDS011;55318;52.068;5.188;2023-12-28T07:37:30;9.9;;;2.4;;
68375;SDS011;55318;52.068;5.188;2023-12-28T07:39:06;6.6;;;1.8;;
68375;SDS011;55318;52.068;5.188;2023-12-28T07:42:21;6.3;;;2.5;;
68375;SDS011;55318;52.068;5.188;2023-12-28T07:43:58;7.3;;;2.8;;
68375;SDS011;55318;52.068;5.188;2023-12-28T07:45:34;9.9;;;3.5;;
68375;SDS011;55318;52.068;5.188;2023-12-28T07:48:46;11.5;;;2.31;;
68375;SDS011;55318;52.068;5.188;2023-12-28T07:50:22;6.8;;;1.8;;
68375;SDS011;55318;52.068;5.188;2023-12-28T07:52:01;9.9;;;2.1;;
68375;SDS011;55318;52.068;5.188;2023-12-28T07:53:37;10.0;;;2.1;;
68375;SDS011;55318;52.068;5.188;2023-12-28T07:56:50;7.6;;;2.0;;
68375;SDS011;55318;52.068;5.188;2023-12-28T07:58:26;9.4;;;2.21;;
68375;SDS011;55318;52.068;5.188;2023-12-28T08:00:03;9.9;;;2.21;;
68375;SDS011;55318;52.068;5.188;2023-12-28T08:03:16;5.7;;;2.4;;
68375;SDS011;55318;52.068;5.188;2023-12-28T08:04:52;7.2;;;2.21;;
68375;SDS011;55318;52.068;5.188;2023-12-28T08:06:28;6.8;;;2.8;;
68375;SDS011;55318;52.068;5.188;2023-12-28T08:09:40;5.9;;;2.1;;
68375;SDS011;55318;52.068;5.188;2023-12-28T08:11:16;7.7;;;2.0;;
68375;SDS011;55318;52.068;5.188;2023-12-28T08:12:52;8.81;;;2.21;;
68375;SDS011;55318;52.068;5.188;2023-12-28T08:14:32;8.71;;;2.21;;
68375;SDS011;55318;52.068;5.188;2023-12-28T08:17:44;8.2;;;2.31;;
68375;SDS011;55318;52.068;5.188;2023-12-28T08:19:20;9.71;;;2.8;;
68375;SDS011;55318;52.068;5.188;2023-12-28T08:20:56;10.4;;;3.1;;
68375;SDS011;55318;52.068;5.188;2023-12-28T08:24:08;8.6;;;2.8;;
68375;SDS011;55318;52.068;5.188;2023-12-28T08:25:45;7.8;;;2.0;;
68375;SDS011;55318;52.068;5.188;2023-12-28T08:27:20;9.1;;;2.6;;
68375;SDS011;55318;52.068;5.188;2023-12-28T08:30:32;10.4;;;2.8;;
68375;SDS011;55318;52.068;5.188;2023-12-28T08:32:08;8.6;;;1.5;;
68375;SDS011;55318;52.068;5.188;2023-12-28T08:33:44;10.3;;;3.2;;
68375;SDS011;55318;52.068;5.188;2023-12-28T08:35:20;13.7;;;2.8;;
68375;SDS011;55318;52.068;5.188;2023-12-28T08:38:32;7.6;;;1.8;;
68375;SDS011;55318;52.068;5.188;2023-12-28T08:40:09;9.31;;;2.1;;
68375;SDS011;55318;52.068;5.188;2023-12-28T08:41:45;6.0;;;1.9;;
68375;SDS011;55318;52.068;5.188;2023-12-28T08:44:58;11.6;;;3.1;;
68375;SDS011;55318;52.068;5.188;2023-12-28T08:46:34;14.2;;;3.3;;
68375;SDS011;55318;52.068;5.188;2023-12-28T08:48:10;11.4;;;2.7;;
68375;SDS011;55318;52.068;5.188;2023-12-28T08:51:22;9.0;;;2.1;;
68375;SDS011;55318;52.068;5.188;2023-12-28T08:52:58;12.4;;;3.1;;
68375;SDS011;55318;52.068;5.188;2023-12-28T08:54:34;6.7;;;2.4;;
68375;SDS011;55318;52.068;5.188;2023-12-28T08:57:51;7.6;;;2.31;;
68375;SDS011;55318;52.068;5.188;2023-12-28T08:59:29;5.7;;;2.0;;
68375;SDS011;55318;52.068;5.188;2023-12-28T09:01:05;11.5;;;2.8;;
68375;SDS011;55318;52.068;5.188;2023-12-28T09:02:41;11.0;;;2.4;;
68375;SDS011;55318;52.068;5.188;2023-12-28T09:05:53;12.7;;;2.31;;
68375;SDS011;55318;52.068;5.188;2023-12-28T09:07:29;6.9;;;2.0;;
68375;SDS011;55318;52.068;5.188;2023-12-28T09:09:05;7.9;;;2.5;;
68375;SDS011;55318;52.068;5.188;2023-12-28T09:12:20;9.1;;;1.8;;
68375;SDS011;55318;52.068;5.188;2023-12-28T09:13:56;13.1;;;2.7;;
68375;SDS011;55318;52.068;5.188;2023-12-28T09:15:33;9.0;;;2.6;;
68375;SDS011;55318;52.068;5.188;2023-12-28T09:17:09;10.0;;;3.5;;
68375;SDS011;55318;52.068;5.188;2023-12-28T09:20:21;10.0;;;3.5;;
68375;SDS011;55318;52.068;5.188;2023-12-28T09:21:57;7.9;;;1.8;;
68375;SDS011;55318;52.068;5.188;2023-12-28T09:23:33;8.4;;;2.8;;
68375;SDS011;55318;52.068;5.188;2023-12-28T09:26:46;6.5;;;1.9;;
68375;SDS011;55318;52.068;5.188;2023-12-28T09:28:22;13.1;;;3.0;;
68375;SDS011;55318;52.068;5.188;2023-12-28T09:29:59;9.9;;;2.6;;
68375;SDS011;55318;52.068;5.188;2023-12-28T09:33:11;11.4;;;2.8;;
68375;SDS011;55318;52.068;5.188;2023-12-28T09:34:47;6.7;;;2.31;;
68375;SDS011;55318;52.068;5.188;2023-12-28T09:36:23;11.2;;;3.2;;
68375;SDS011;55318;52.068;5.188;2023-12-28T09:39:35;5.6;;;2.1;;
68375;SDS011;55318;52.068;5.188;2023-12-28T09:41:12;10.4;;;2.5;;
68375;SDS011;55318;52.068;5.188;2023-12-28T09:42:57;12.4;;;3.2;;
68375;SDS011;55318;52.068;5.188;2023-12-28T09:44:46;9.9;;;3.1;;
68375;SDS011;55318;52.068;5.188;2023-12-28T09:47:59;14.9;;;4.1;;
68375;SDS011;55318;52.068;5.188;2023-12-28T09:49:35;9.71;;;2.5;;
68375;SDS011;55318;52.068;5.188;2023-12-28T09:51:13;11.8;;;2.8;;
68375;SDS011;55318;52.068;5.188;2023-12-28T09:52:49;6.7;;;2.0;;
68375;SDS011;55318;52.068;5.188;2023-12-28T09:56:01;12.5;;;3.0;;
68375;SDS011;55318;52.068;5.188;2023-12-28T09:57:38;12.0;;;3.5;;
68375;SDS011;55318;52.068;5.188;2023-12-28T09:59:15;9.5;;;3.1;;
68375;SDS011;55318;52.068;5.188;2023-12-28T10:02:30;8.9;;;2.6;;
68375;SDS011;55318;52.068;5.188;2023-12-28T10:04:07;10.9;;;3.0;;
68375;SDS011;55318;52.068;5.188;2023-12-28T10:05:43;13.0;;;3.1;;
68375;SDS011;55318;52.068;5.188;2023-12-28T10:08:57;8.81;;;1.7;;
68375;SDS011;55318;52.068;5.188;2023-12-28T10:10:33;9.4;;;2.8;;
68375;SDS011;55318;52.068;5.188;2023-12-28T10:12:09;10.0;;;2.7;;
68375;SDS011;55318;52.068;5.188;2023-12-28T10:13:45;7.9;;;2.7;;
68375;SDS011;55318;52.068;5.188;2023-12-28T10:16:57;9.9;;;2.7;;
68375;SDS011;55318;52.068;5.188;2023-12-28T10:18:34;10.9;;;2.31;;
68375;SDS011;55318;52.068;5.188;2023-12-28T10:20:10;7.4;;;2.6;;
68375;SDS011;55318;52.068;5.188;2023-12-28T10:23:22;12.9;;;3.1;;
68375;SDS011;55318;52.068;5.188;2023-12-28T10:24:59;8.5;;;2.21;;
68375;SDS011;55318;52.068;5.188;2023-12-28T10:26:35;7.7;;;2.5;;
68375;SDS011;55318;52.068;5.188;2023-12-28T10:29:48;8.1;;;1.8;;
68375;SDS011;55318;52.068;5.188;2023-12-28T10:31:23;16.9;;;3.9;;
68375;SDS011;55318;52.068;5.188;2023-12-28T10:33:00;8.71;;;2.21;;
68375;SDS011;55318;52.068;5.188;2023-12-28T10:34:36;10.5;;;3.0;;
68375;SDS011;55318;52.068;5.188;2023-12-28T10:37:51;11.0;;;2.6;;
68375;SDS011;55318;52.068;5.188;2023-12-28T10:39:28;13.7;;;3.2;;
68375;SDS011;55318;52.068;5.188;2023-12-28T10:41:09;10.9;;;2.5;;
68375;SDS011;55318;52.068;5.188;2023-12-28T10:44:27;7.0;;;2.31;;
68375;SDS011;55318;52.068;5.188;2023-12-28T10:46:11;11.2;;;2.4;;
68375;SDS011;55318;52.068;5.188;2023-12-28T10:48:00;12.7;;;3.0;;
68375;SDS011;55318;52.068;5.188;2023-12-28T10:49:41;8.0;;;2.6;;
68375;SDS011;55318;52.068;5.188;2023-12-28T10:51:22;8.1;;;3.2;;
68375;SDS011;55318;52.068;5.188;2023-12-28T10:55:00;9.21;;;2.31;;
68375;SDS011;55318;52.068;5.188;2023-12-28T10:56:59;8.1;;;2.1;;
68375;SDS011;55318;52.068;5.188;2023-12-28T10:58:43;10.6;;;2.5;;
68375;SDS011;55318;52.068;5.188;2023-12-28T11:00:26;13.2;;;3.4;;
68375;SDS011;55318;52.068;5.188;2023-12-28T11:02:09;11.5;;;2.5;;
68375;SDS011;55318;52.068;5.188;2023-12-28T11:05:34;12.1;;;3.7;;
68375;SDS011;55318;52.068;5.188;2023-12-28T11:07:11;7.0;;;2.31;;
68375;SDS011;55318;52.068;5.188;2023-12-28T11:08:50;7.6;;;2.5;;
68375;SDS011;55318;52.068;5.188;2023-12-28T11:10:28;22.4;;;3.9;;
68375;SDS011;55318;52.068;5.188;2023-12-28T11:13:43;10.1;;;3.0;;
68375;SDS011;55318;52.068;5.188;2023-12-28T11:15:21;10.0;;;2.8;;
68375;SDS011;55318;52.068;5.188;2023-12-28T11:16:57;13.2;;;3.2;;
68375;SDS011;55318;52.068;5.188;2023-12-28T11:18:35;13.2;;;3.2;;
68375;SDS011;55318;52.068;5.188;2023-12-28T11:21:49;15.6;;;3.4;;
68375;SDS011;55318;52.068;5.188;2023-12-28T11:23:27;9.71;;;2.5;;
68375;SDS011;55318;52.068;5.188;2023-12-28T11:25:04;10.6;;;3.1;;
68375;SDS011;55318;52.068;5.188;2023-12-28T11:28:16;7.0;;;2.21;;
68375;SDS011;55318;52.068;5.188;2023-12-28T11:29:52;7.4;;;2.21;;
68375;SDS011;55318;52.068;5.188;2023-12-28T11:31:28;7.7;;;2.4;;
68375;SDS011;55318;52.068;5.188;2023-12-28T11:33:07;8.4;;;2.31;;
68375;SDS011;55318;52.068;5.188;2023-12-28T11:36:34;7.7;;;2.0;;
68375;SDS011;55318;52.068;5.188;2023-12-28T11:38:12;17.91;;;3.5;;
68375;SDS011;55318;52.068;5.188;2023-12-28T11:39:52;13.1;;;2.4;;
68375;SDS011;55318;52.068;5.188;2023-12-28T11:43:14;11.6;;;3.1;;
68375;SDS011;55318;52.068;5.188;2023-12-28T11:44:53;13.0;;;2.1;;
68375;SDS011;55318;52.068;5.188;2023-12-28T11:46:31;9.9;;;3.0;;
68375;SDS011;55318;52.068;5.188;2023-12-28T11:48:07;6.1;;;1.6;;
68375;SDS011;55318;52.068;5.188;2023-12-28T11:51:20;8.1;;;2.8;;
68375;SDS011;55318;52.068;5.188;2023-12-28T11:52:56;13.1;;;3.0;;
68375;SDS011;55318;52.068;5.188;2023-12-28T11:54:32;12.0;;;2.4;;
68375;SDS011;55318;52.068;5.188;2023-12-28T11:57:44;9.4;;;2.31;;
68375;SDS011;55318;52.068;5.188;2023-12-28T11:59:24;11.4;;;3.2;;
68375;SDS011;55318;52.068;5.188;2023-12-28T12:01:00;13.8;;;2.5;;
68375;SDS011;55318;52.068;5.188;2023-12-28T12:02:36;8.71;;;2.1;;
68375;SDS011;55318;52.068;5.188;2023-12-28T12:05:49;20.6;;;4.7;;
68375;SDS011;55318;52.068;5.188;2023-12-28T12:07:26;11.2;;;2.4;;
68375;SDS011;55318;52.068;5.188;2023-12-28T12:09:03;7.8;;;2.21;;
68375;SDS011;55318;52.068;5.188;2023-12-28T12:12:15;11.7;;;2.6;;
68375;SDS011;55318;52.068;5.188;2023-12-28T12:13:52;8.9;;;2.21;;
68375;SDS011;55318;52.068;5.188;2023-12-28T12:15:28;7.6;;;1.8;;
68375;SDS011;55318;52.068;5.188;2023-12-28T12:17:05;8.0;;;2.4;;
68375;SDS011;55318;52.068;5.188;2023-12-28T12:20:19;9.6;;;2.7;;
68375;SDS011;55318;52.068;5.188;2023-12-28T12:21:59;9.0;;;2.7;;
68375;SDS011;55318;52.068;5.188;2023-12-28T12:23:35;7.9;;;1.9;;
68375;SDS011;55318;52.068;5.188;2023-12-28T12:26:47;13.6;;;2.8;;
68375;SDS011;55318;52.068;5.188;2023-12-28T12:28:24;9.81;;;2.21;;
68375;SDS011;55318;52.068;5.188;2023-12-28T12:30:01;12.9;;;2.8;;
68375;SDS011;55318;52.068;5.188;2023-12-28T12:33:18;12.9;;;2.8;;
68375;SDS011;55318;52.068;5.188;2023-12-28T12:34:54;11.7;;;3.4;;
68375;SDS011;55318;52.068;5.188;2023-12-28T12:36:30;16.5;;;2.9;;
68375;SDS011;55318;52.068;5.188;2023-12-28T12:38:06;10.0;;;2.9;;
68375;SDS011;55318;52.068;5.188;2023-12-28T12:41:19;10.1;;;3.3;;
68375;SDS011;55318;52.068;5.188;2023-12-28T12:42:55;10.0;;;3.1;;
68375;SDS011;55318;52.068;5.188;2023-12-28T12:44:34;9.1;;;2.7;;
68375;SDS011;55318;52.068;5.188;2023-12-28T12:47:47;16.5;;;3.3;;
68375;SDS011;55318;52.068;5.188;2023-12-28T12:49:24;7.8;;;2.4;;
68375;SDS011;55318;52.068;5.188;2023-12-28T12:51:01;10.5;;;3.2;;
68375;SDS011;55318;52.068;5.188;2023-12-28T12:52:38;12.0;;;3.2;;
68375;SDS011;55318;52.068;5.188;2023-12-28T12:55:54;10.6;;;2.0;;
68375;SDS011;55318;52.068;5.188;2023-12-28T12:57:30;10.8;;;2.6;;